sensor_id;sensor_type;location;lat;lon;timestamp;temperature;humidity
19025;DHT22;9645;51.448;6.260;2022-07-09T00:01:22;16.30;99.90
19025;DHT22;9645;51.448;6.260;2022-07-09T00:03:50;16.30;99.90
19025;DHT22;9645;51.448;6.260;2022-07-09T00:06:18;16.30;99.90
19025;DHT22;9645;51.448;6.260;2022-07-09T00:08:45;16.30;99.90
19025;DHT22;9645;51.448;6.260;2022-07-09T00:11:12;16.20;99.90
19025;DHT22;9645;51.448;6.260;2022-07-09T00:13:39;16.20;99.90
19025;DHT22;9645;51.448;6.260;2022-07-09T00:16:07;16.20;99.90
19025;DHT22;9645;51.448;6.260;2022-07-09T00:18:34;16.20;99.90
19025;DHT22;9645;51.448;6.260;2022-07-09T00:21:02;16.10;99.90
19025;DHT22;9645;51.448;6.260;2022-07-09T00:23:29;16.10;99.90
19025;DHT22;9645;51.448;6.260;2022-07-09T00:25:57;16.00;99.90
19025;DHT22;9645;51.448;6.260;2022-07-09T00:28:24;16.00;99.90
19025;DHT22;9645;51.448;6.260;2022-07-09T00:30:51;15.90;99.90
19025;DHT22;9645;51.448;6.260;2022-07-09T00:33:18;15.90;99.90
19025;DHT22;9645;51.448;6.260;2022-07-09T00:35:45;15.80;99.90
19025;DHT22;9645;51.448;6.260;2022-07-09T00:38:13;15.80;99.90
19025;DHT22;9645;51.448;6.260;2022-07-09T00:40:41;15.80;99.90
19025;DHT22;9645;51.448;6.260;2022-07-09T00:43:16;15.80;99.90
19025;DHT22;9645;51.448;6.260;2022-07-09T00:45:43;15.70;99.90
19025;DHT22;9645;51.448;6.260;2022-07-09T00:48:11;15.70;99.90
19025;DHT22;9645;51.448;6.260;2022-07-09T00:50:39;15.70;99.90
19025;DHT22;9645;51.448;6.260;2022-07-09T00:53:07;15.70;99.90
19025;DHT22;9645;51.448;6.260;2022-07-09T00:55:37;15.70;99.90
19025;DHT22;9645;51.448;6.260;2022-07-09T00:58:05;15.70;99.90
19025;DHT22;9645;51.448;6.260;2022-07-09T01:00:34;15.60;99.90
19025;DHT22;9645;51.448;6.260;2022-07-09T01:03:01;14.80;99.90
19025;DHT22;9645;51.448;6.260;2022-07-09T01:05:28;15.60;99.90
19025;DHT22;9645;51.448;6.260;2022-07-09T01:08:02;15.60;99.90
19025;DHT22;9645;51.448;6.260;2022-07-09T01:10:30;15.60;99.90
19025;DHT22;9645;51.448;6.260;2022-07-09T01:12:59;15.60;99.90
19025;DHT22;9645;51.448;6.260;2022-07-09T01:15:27;15.60;99.90
19025;DHT22;9645;51.448;6.260;2022-07-09T01:17:54;15.60;99.90
19025;DHT22;9645;51.448;6.260;2022-07-09T01:20:25;15.60;99.90
19025;DHT22;9645;51.448;6.260;2022-07-09T01:22:52;15.60;99.90
19025;DHT22;9645;51.448;6.260;2022-07-09T01:25:19;15.60;99.90
19025;DHT22;9645;51.448;6.260;2022-07-09T01:27:52;15.50;99.90
19025;DHT22;9645;51.448;6.260;2022-07-09T01:30:28;15.50;99.90
19025;DHT22;9645;51.448;6.260;2022-07-09T01:32:55;15.50;99.90
19025;DHT22;9645;51.448;6.260;2022-07-09T01:35:24;15.50;99.90
19025;DHT22;9645;51.448;6.260;2022-07-09T01:37:51;15.50;99.90
19025;DHT22;9645;51.448;6.260;2022-07-09T01:40:19;15.50;99.90
19025;DHT22;9645;51.448;6.260;2022-07-09T01:42:46;15.50;99.90
19025;DHT22;9645;51.448;6.260;2022-07-09T01:45:14;15.40;99.90
19025;DHT22;9645;51.448;6.260;2022-07-09T01:47:41;15.40;99.90
19025;DHT22;9645;51.448;6.260;2022-07-09T01:50:09;15.40;99.90
19025;DHT22;9645;51.448;6.260;2022-07-09T01:52:38;15.40;99.90
19025;DHT22;9645;51.448;6.260;2022-07-09T01:55:06;15.40;99.90
19025;DHT22;9645;51.448;6.260;2022-07-09T01:57:33;14.00;99.90
19025;DHT22;9645;51.448;6.260;2022-07-09T02:00:00;15.30;99.90
19025;DHT22;9645;51.448;6.260;2022-07-09T02:02:29;15.30;99.90
19025;DHT22;9645;51.448;6.260;2022-07-09T02:04:56;15.30;99.90
19025;DHT22;9645;51.448;6.260;2022-07-09T02:07:24;15.30;99.90
19025;DHT22;9645;51.448;6.260;2022-07-09T02:09:53;15.30;99.90
19025;DHT22;9645;51.448;6.260;2022-07-09T02:12:20;15.20;99.90
19025;DHT22;9645;51.448;6.260;2022-07-09T02:14:48;15.30;99.90
19025;DHT22;9645;51.448;6.260;2022-07-09T02:17:15;15.20;99.90
19025;DHT22;9645;51.448;6.260;2022-07-09T02:19:43;15.20;99.90
19025;DHT22;9645;51.448;6.260;2022-07-09T02:22:10;15.20;99.90
19025;DHT22;9645;51.448;6.260;2022-07-09T02:24:37;15.10;99.90
19025;DHT22;9645;51.448;6.260;2022-07-09T02:27:07;15.10;99.90
19025;DHT22;9645;51.448;6.260;2022-07-09T02:29:35;15.00;99.90
19025;DHT22;9645;51.448;6.260;2022-07-09T02:32:02;15.00;99.90
19025;DHT22;9645;51.448;6.260;2022-07-09T02:34:30;15.00;99.90
19025;DHT22;9645;51.448;6.260;2022-07-09T02:36:57;15.00;99.90
19025;DHT22;9645;51.448;6.260;2022-07-09T02:39:25;15.00;99.90
19025;DHT22;9645;51.448;6.260;2022-07-09T02:41:52;14.90;99.90
19025;DHT22;9645;51.448;6.260;2022-07-09T02:44:21;14.90;99.90
19025;DHT22;9645;51.448;6.260;2022-07-09T02:46:48;14.90;99.90
19025;DHT22;9645;51.448;6.260;2022-07-09T02:49:16;14.80;99.90
19025;DHT22;9645;51.448;6.260;2022-07-09T02:51:44;14.80;99.90
19025;DHT22;9645;51.448;6.260;2022-07-09T02:54:11;14.90;99.90
19025;DHT22;9645;51.448;6.260;2022-07-09T02:56:38;14.80;99.90
19025;DHT22;9645;51.448;6.260;2022-07-09T02:59:05;14.80;99.90
19025;DHT22;9645;51.448;6.260;2022-07-09T03:01:33;14.80;99.90
19025;DHT22;9645;51.448;6.260;2022-07-09T03:04:02;14.70;99.90
19025;DHT22;9645;51.448;6.260;2022-07-09T03:06:29;14.70;99.90
19025;DHT22;9645;51.448;6.260;2022-07-09T03:08:56;14.60;99.90
19025;DHT22;9645;51.448;6.260;2022-07-09T03:11:23;14.60;99.90
19025;DHT22;9645;51.448;6.260;2022-07-09T03:13:50;14.60;99.90
19025;DHT22;9645;51.448;6.260;2022-07-09T03:16:17;14.60;99.90
19025;DHT22;9645;51.448;6.260;2022-07-09T03:18:46;14.60;99.90
19025;DHT22;9645;51.448;6.260;2022-07-09T03:21:12;14.60;99.90
19025;DHT22;9645;51.448;6.260;2022-07-09T03:23:40;14.50;99.90
19025;DHT22;9645;51.448;6.260;2022-07-09T03:26:07;14.50;99.90
19025;DHT22;9645;51.448;6.260;2022-07-09T03:28:34;14.40;99.90
19025;DHT22;9645;51.448;6.260;2022-07-09T03:31:01;14.40;99.90
19025;DHT22;9645;51.448;6.260;2022-07-09T03:33:28;14.40;99.90
19025;DHT22;9645;51.448;6.260;2022-07-09T03:36:00;14.40;99.90
19025;DHT22;9645;51.448;6.260;2022-07-09T03:38:27;14.40;99.90
19025;DHT22;9645;51.448;6.260;2022-07-09T03:40:54;14.40;99.90
19025;DHT22;9645;51.448;6.260;2022-07-09T03:43:22;14.40;99.90
19025;DHT22;9645;51.448;6.260;2022-07-09T03:45:49;14.40;99.90
19025;DHT22;9645;51.448;6.260;2022-07-09T03:48:16;14.50;99.90
19025;DHT22;9645;51.448;6.260;2022-07-09T03:50:43;14.50;99.90
19025;DHT22;9645;51.448;6.260;2022-07-09T03:53:12;14.50;99.90
19025;DHT22;9645;51.448;6.260;2022-07-09T03:55:39;14.50;99.90
19025;DHT22;9645;51.448;6.260;2022-07-09T03:58:06;14.50;99.90
19025;DHT22;9645;51.448;6.260;2022-07-09T04:00:33;14.50;99.90
19025;DHT22;9645;51.448;6.260;2022-07-09T04:03:01;14.60;99.90
19025;DHT22;9645;51.448;6.260;2022-07-09T04:05:29;14.60;99.90
19025;DHT22;9645;51.448;6.260;2022-07-09T04:07:57;14.60;99.90
19025;DHT22;9645;51.448;6.260;2022-07-09T04:10:26;14.60;99.90
19025;DHT22;9645;51.448;6.260;2022-07-09T04:12:53;14.60;99.90
19025;DHT22;9645;51.448;6.260;2022-07-09T04:15:20;14.60;99.90
19025;DHT22;9645;51.448;6.260;2022-07-09T04:17:48;14.70;99.90
19025;DHT22;9645;51.448;6.260;2022-07-09T04:20:15;14.70;99.90
19025;DHT22;9645;51.448;6.260;2022-07-09T04:22:42;14.70;99.90
19025;DHT22;9645;51.448;6.260;2022-07-09T04:25:09;14.80;99.90
19025;DHT22;9645;51.448;6.260;2022-07-09T04:27:37;14.80;99.90
19025;DHT22;9645;51.448;6.260;2022-07-09T04:30:06;14.80;99.90
19025;DHT22;9645;51.448;6.260;2022-07-09T04:32:33;14.90;99.90
19025;DHT22;9645;51.448;6.260;2022-07-09T04:35:00;14.90;99.90
19025;DHT22;9645;51.448;6.260;2022-07-09T04:37:27;15.00;99.90
19025;DHT22;9645;51.448;6.260;2022-07-09T04:39:54;15.00;99.90
19025;DHT22;9645;51.448;6.260;2022-07-09T04:42:21;15.10;99.90
19025;DHT22;9645;51.448;6.260;2022-07-09T04:44:50;15.10;99.90
19025;DHT22;9645;51.448;6.260;2022-07-09T04:47:17;15.10;99.90
19025;DHT22;9645;51.448;6.260;2022-07-09T04:49:44;15.20;99.90
19025;DHT22;9645;51.448;6.260;2022-07-09T04:52:11;15.20;99.90
19025;DHT22;9645;51.448;6.260;2022-07-09T04:54:42;15.30;99.90
19025;DHT22;9645;51.448;6.260;2022-07-09T04:57:09;15.40;99.90
19025;DHT22;9645;51.448;6.260;2022-07-09T04:59:36;15.50;99.90
19025;DHT22;9645;51.448;6.260;2022-07-09T05:02:05;15.60;99.90
19025;DHT22;9645;51.448;6.260;2022-07-09T05:04:32;15.70;99.90
19025;DHT22;9645;51.448;6.260;2022-07-09T05:06:59;15.80;99.90
19025;DHT22;9645;51.448;6.260;2022-07-09T05:09:26;15.80;99.90
19025;DHT22;9645;51.448;6.260;2022-07-09T05:11:53;15.80;99.90
19025;DHT22;9645;51.448;6.260;2022-07-09T05:14:20;15.80;99.90
19025;DHT22;9645;51.448;6.260;2022-07-09T05:16:47;15.90;99.90
19025;DHT22;9645;51.448;6.260;2022-07-09T05:19:16;15.90;99.90
19025;DHT22;9645;51.448;6.260;2022-07-09T05:21:43;16.00;99.90
19025;DHT22;9645;51.448;6.260;2022-07-09T05:24:10;16.10;99.90
19025;DHT22;9645;51.448;6.260;2022-07-09T05:26:37;16.20;99.90
19025;DHT22;9645;51.448;6.260;2022-07-09T05:29:04;16.30;99.90
19025;DHT22;9645;51.448;6.260;2022-07-09T05:31:31;16.40;99.90
19025;DHT22;9645;51.448;6.260;2022-07-09T05:33:59;16.50;99.90
19025;DHT22;9645;51.448;6.260;2022-07-09T05:36:28;16.70;99.90
19025;DHT22;9645;51.448;6.260;2022-07-09T05:38:55;16.80;99.90
19025;DHT22;9645;51.448;6.260;2022-07-09T05:41:22;17.00;99.90
19025;DHT22;9645;51.448;6.260;2022-07-09T05:43:50;17.10;99.90
19025;DHT22;9645;51.448;6.260;2022-07-09T05:46:17;17.00;99.90
19025;DHT22;9645;51.448;6.260;2022-07-09T05:48:44;17.10;99.90
19025;DHT22;9645;51.448;6.260;2022-07-09T05:51:11;17.20;99.90
19025;DHT22;9645;51.448;6.260;2022-07-09T05:53:40;17.20;99.90
19025;DHT22;9645;51.448;6.260;2022-07-09T05:56:07;17.50;99.90
19025;DHT22;9645;51.448;6.260;2022-07-09T05:58:34;17.60;99.90
19025;DHT22;9645;51.448;6.260;2022-07-09T06:01:03;17.80;99.90
19025;DHT22;9645;51.448;6.260;2022-07-09T06:03:30;18.00;99.90
19025;DHT22;9645;51.448;6.260;2022-07-09T06:05:57;18.00;99.90
19025;DHT22;9645;51.448;6.260;2022-07-09T06:08:25;18.10;99.90
19025;DHT22;9645;51.448;6.260;2022-07-09T06:10:53;18.40;99.90
19025;DHT22;9645;51.448;6.260;2022-07-09T06:13:20;18.60;99.90
19025;DHT22;9645;51.448;6.260;2022-07-09T06:15:48;18.70;99.90
19025;DHT22;9645;51.448;6.260;2022-07-09T06:18:15;18.80;99.90
19025;DHT22;9645;51.448;6.260;2022-07-09T06:20:42;18.70;99.90
19025;DHT22;9645;51.448;6.260;2022-07-09T06:23:10;18.50;99.90
19025;DHT22;9645;51.448;6.260;2022-07-09T06:25:37;18.60;99.90
19025;DHT22;9645;51.448;6.260;2022-07-09T06:28:06;18.60;99.90
19025;DHT22;9645;51.448;6.260;2022-07-09T06:30:33;18.70;99.90
19025;DHT22;9645;51.448;6.260;2022-07-09T06:33:01;18.90;99.90
19025;DHT22;9645;51.448;6.260;2022-07-09T06:35:28;19.10;99.90
19025;DHT22;9645;51.448;6.260;2022-07-09T06:37:56;19.30;99.90
19025;DHT22;9645;51.448;6.260;2022-07-09T06:40:23;19.40;99.90
19025;DHT22;9645;51.448;6.260;2022-07-09T06:42:51;19.50;99.90
19025;DHT22;9645;51.448;6.260;2022-07-09T06:45:19;19.70;99.90
19025;DHT22;9645;51.448;6.260;2022-07-09T06:47:46;19.80;99.90
19025;DHT22;9645;51.448;6.260;2022-07-09T06:50:14;20.20;99.90
19025;DHT22;9645;51.448;6.260;2022-07-09T06:52:42;20.40;99.90
19025;DHT22;9645;51.448;6.260;2022-07-09T06:55:09;20.50;99.90
19025;DHT22;9645;51.448;6.260;2022-07-09T06:57:37;20.70;99.90
19025;DHT22;9645;51.448;6.260;2022-07-09T07:00:05;20.70;99.90
19025;DHT22;9645;51.448;6.260;2022-07-09T07:02:35;20.30;99.90
19025;DHT22;9645;51.448;6.260;2022-07-09T07:05:03;20.80;99.90
19025;DHT22;9645;51.448;6.260;2022-07-09T07:07:30;21.10;99.90
19025;DHT22;9645;51.448;6.260;2022-07-09T07:09:57;21.30;99.90
19025;DHT22;9645;51.448;6.260;2022-07-09T07:12:24;21.30;99.90
19025;DHT22;9645;51.448;6.260;2022-07-09T07:14:51;21.50;99.90
19025;DHT22;9645;51.448;6.260;2022-07-09T07:17:18;21.70;99.90
19025;DHT22;9645;51.448;6.260;2022-07-09T07:20:11;21.80;99.90
19025;DHT22;9645;51.448;6.260;2022-07-09T07:22:38;21.80;99.90
19025;DHT22;9645;51.448;6.260;2022-07-09T07:25:06;21.50;99.90
19025;DHT22;9645;51.448;6.260;2022-07-09T07:27:34;21.40;99.90
19025;DHT22;9645;51.448;6.260;2022-07-09T07:30:01;20.80;99.90
19025;DHT22;9645;51.448;6.260;2022-07-09T07:32:28;20.90;99.90
19025;DHT22;9645;51.448;6.260;2022-07-09T07:34:55;21.10;99.90
19025;DHT22;9645;51.448;6.260;2022-07-09T07:37:24;21.70;99.90
19025;DHT22;9645;51.448;6.260;2022-07-09T07:39:51;21.30;99.90
19025;DHT22;9645;51.448;6.260;2022-07-09T07:42:21;22.40;99.90
19025;DHT22;9645;51.448;6.260;2022-07-09T07:44:49;23.00;99.90
19025;DHT22;9645;51.448;6.260;2022-07-09T07:47:16;23.40;99.90
19025;DHT22;9645;51.448;6.260;2022-07-09T07:49:44;23.50;99.90
19025;DHT22;9645;51.448;6.260;2022-07-09T07:52:14;23.80;99.90
19025;DHT22;9645;51.448;6.260;2022-07-09T07:54:43;23.80;99.90
19025;DHT22;9645;51.448;6.260;2022-07-09T07:57:12;23.10;99.90
19025;DHT22;9645;51.448;6.260;2022-07-09T07:59:39;25.60;99.90
19025;DHT22;9645;51.448;6.260;2022-07-09T08:02:06;24.40;99.90
19025;DHT22;9645;51.448;6.260;2022-07-09T08:04:38;24.30;99.90
19025;DHT22;9645;51.448;6.260;2022-07-09T08:07:08;24.30;99.90
19025;DHT22;9645;51.448;6.260;2022-07-09T08:09:35;24.70;99.90
19025;DHT22;9645;51.448;6.260;2022-07-09T08:12:08;24.90;99.90
19025;DHT22;9645;51.448;6.260;2022-07-09T08:14:35;24.70;99.90
19025;DHT22;9645;51.448;6.260;2022-07-09T08:17:05;24.30;99.90
19025;DHT22;9645;51.448;6.260;2022-07-09T08:19:32;24.50;99.90
19025;DHT22;9645;51.448;6.260;2022-07-09T08:22:00;24.60;99.90
19025;DHT22;9645;51.448;6.260;2022-07-09T08:24:27;24.00;99.90
19025;DHT22;9645;51.448;6.260;2022-07-09T08:26:55;24.30;99.90
19025;DHT22;9645;51.448;6.260;2022-07-09T08:29:24;24.60;99.90
19025;DHT22;9645;51.448;6.260;2022-07-09T08:31:53;24.90;99.90
19025;DHT22;9645;51.448;6.260;2022-07-09T08:34:20;25.10;99.90
19025;DHT22;9645;51.448;6.260;2022-07-09T08:36:49;25.30;99.90
19025;DHT22;9645;51.448;6.260;2022-07-09T08:39:16;25.80;99.90
19025;DHT22;9645;51.448;6.260;2022-07-09T08:41:48;26.20;99.90
19025;DHT22;9645;51.448;6.260;2022-07-09T08:44:17;26.50;99.90
19025;DHT22;9645;51.448;6.260;2022-07-09T08:46:48;25.20;99.90
19025;DHT22;9645;51.448;6.260;2022-07-09T08:49:16;26.00;99.90
19025;DHT22;9645;51.448;6.260;2022-07-09T08:51:50;26.20;99.90
19025;DHT22;9645;51.448;6.260;2022-07-09T08:54:29;26.30;99.90
19025;DHT22;9645;51.448;6.260;2022-07-09T08:56:58;26.60;99.90
19025;DHT22;9645;51.448;6.260;2022-07-09T08:59:28;26.80;99.90
19025;DHT22;9645;51.448;6.260;2022-07-09T09:01:57;27.00;99.90
19025;DHT22;9645;51.448;6.260;2022-07-09T09:04:26;27.30;99.90
19025;DHT22;9645;51.448;6.260;2022-07-09T09:07:13;26.80;99.90
19025;DHT22;9645;51.448;6.260;2022-07-09T09:09:56;27.00;99.90
19025;DHT22;9645;51.448;6.260;2022-07-09T09:12:27;26.90;99.90
19025;DHT22;9645;51.448;6.260;2022-07-09T09:15:05;26.90;99.90
19025;DHT22;9645;51.448;6.260;2022-07-09T09:17:56;26.60;99.90
19025;DHT22;9645;51.448;6.260;2022-07-09T09:20:27;26.60;99.90
19025;DHT22;9645;51.448;6.260;2022-07-09T09:23:02;26.70;99.90
19025;DHT22;9645;51.448;6.260;2022-07-09T09:25:55;26.80;99.90
19025;DHT22;9645;51.448;6.260;2022-07-09T09:28:33;26.60;99.90
19025;DHT22;9645;51.448;6.260;2022-07-09T09:31:21;27.30;99.90
19025;DHT22;9645;51.448;6.260;2022-07-09T09:34:10;27.50;99.90
19025;DHT22;9645;51.448;6.260;2022-07-09T09:36:50;27.10;99.90
19025;DHT22;9645;51.448;6.260;2022-07-09T09:39:27;27.00;99.90
19025;DHT22;9645;51.448;6.260;2022-07-09T09:41:59;26.20;99.90
19025;DHT22;9645;51.448;6.260;2022-07-09T09:44:43;27.10;99.90
19025;DHT22;9645;51.448;6.260;2022-07-09T09:50:43;27.00;99.90
19025;DHT22;9645;51.448;6.260;2022-07-09T09:53:20;26.60;99.90
19025;DHT22;9645;51.448;6.260;2022-07-09T09:56:02;26.60;99.90
19025;DHT22;9645;51.448;6.260;2022-07-09T09:58:37;26.20;99.90
19025;DHT22;9645;51.448;6.260;2022-07-09T10:02:59;26.10;99.90
19025;DHT22;9645;51.448;6.260;2022-07-09T10:04:24;26.60;99.90
19025;DHT22;9645;51.448;6.260;2022-07-09T10:07:13;26.00;99.90
19025;DHT22;9645;51.448;6.260;2022-07-09T10:10:15;26.20;99.90
19025;DHT22;9645;51.448;6.260;2022-07-09T10:12:49;27.70;99.90
19025;DHT22;9645;51.448;6.260;2022-07-09T10:15:21;26.80;99.90
19025;DHT22;9645;51.448;6.260;2022-07-09T10:18:09;26.60;99.90
19025;DHT22;9645;51.448;6.260;2022-07-09T10:21:18;26.80;99.90
19025;DHT22;9645;51.448;6.260;2022-07-09T10:23:51;27.40;99.90
19025;DHT22;9645;51.448;6.260;2022-07-09T10:26:39;28.40;99.90
19025;DHT22;9645;51.448;6.260;2022-07-09T10:29:25;28.50;99.90
19025;DHT22;9645;51.448;6.260;2022-07-09T10:32:23;28.30;99.90
19025;DHT22;9645;51.448;6.260;2022-07-09T10:35:26;27.80;99.90
19025;DHT22;9645;51.448;6.260;2022-07-09T10:38:00;27.30;99.90
19025;DHT22;9645;51.448;6.260;2022-07-09T10:40:59;26.90;99.90
19025;DHT22;9645;51.448;6.260;2022-07-09T10:43:59;26.80;99.90
19025;DHT22;9645;51.448;6.260;2022-07-09T10:46:53;26.70;99.90
19025;DHT22;9645;51.448;6.260;2022-07-09T10:49:46;25.00;99.90
19025;DHT22;9645;51.448;6.260;2022-07-09T10:52:54;25.50;99.90
19025;DHT22;9645;51.448;6.260;2022-07-09T11:05:47;28.70;99.90
19025;DHT22;9645;51.448;6.260;2022-07-09T11:08:35;27.90;99.90
19025;DHT22;9645;51.448;6.260;2022-07-09T11:15:03;26.70;99.90
19025;DHT22;9645;51.448;6.260;2022-07-09T11:17:54;26.50;99.90
19025;DHT22;9645;51.448;6.260;2022-07-09T11:20:24;26.90;99.90
19025;DHT22;9645;51.448;6.260;2022-07-09T11:26:38;28.40;99.90
19025;DHT22;9645;51.448;6.260;2022-07-09T11:29:33;28.40;99.90
19025;DHT22;9645;51.448;6.260;2022-07-09T11:32:09;27.10;99.90
19025;DHT22;9645;51.448;6.260;2022-07-09T11:34:58;27.50;99.90
19025;DHT22;9645;51.448;6.260;2022-07-09T11:37:29;27.80;99.90
19025;DHT22;9645;51.448;6.260;2022-07-09T11:40:04;27.50;99.90
19025;DHT22;9645;51.448;6.260;2022-07-09T11:43:23;27.70;99.90
19025;DHT22;9645;51.448;6.260;2022-07-09T11:46:02;28.10;99.90
19025;DHT22;9645;51.448;6.260;2022-07-09T11:49:22;27.80;99.90
19025;DHT22;9645;51.448;6.260;2022-07-09T11:52:25;27.60;99.90
19025;DHT22;9645;51.448;6.260;2022-07-09T11:55:12;28.60;99.90
19025;DHT22;9645;51.448;6.260;2022-07-09T11:58:02;27.90;99.90
19025;DHT22;9645;51.448;6.260;2022-07-09T12:01:15;27.90;99.90
19025;DHT22;9645;51.448;6.260;2022-07-09T12:03:59;29.10;99.90
19025;DHT22;9645;51.448;6.260;2022-07-09T12:06:26;29.40;99.90
19025;DHT22;9645;51.448;6.260;2022-07-09T12:08:59;29.50;99.90
19025;DHT22;9645;51.448;6.260;2022-07-09T12:11:26;29.10;99.90
19025;DHT22;9645;51.448;6.260;2022-07-09T12:13:54;27.90;99.90
19025;DHT22;9645;51.448;6.260;2022-07-09T12:16:22;27.30;99.90
19025;DHT22;9645;51.448;6.260;2022-07-09T12:18:49;27.00;99.90
19025;DHT22;9645;51.448;6.260;2022-07-09T12:21:16;27.30;99.90
19025;DHT22;9645;51.448;6.260;2022-07-09T12:23:44;27.50;99.90
19025;DHT22;9645;51.448;6.260;2022-07-09T12:26:11;27.60;99.90
19025;DHT22;9645;51.448;6.260;2022-07-09T12:28:38;27.50;99.90
19025;DHT22;9645;51.448;6.260;2022-07-09T12:31:05;27.40;99.90
19025;DHT22;9645;51.448;6.260;2022-07-09T12:33:33;27.30;99.90
19025;DHT22;9645;51.448;6.260;2022-07-09T12:36:00;27.00;99.90
19025;DHT22;9645;51.448;6.260;2022-07-09T12:38:28;27.10;99.90
19025;DHT22;9645;51.448;6.260;2022-07-09T12:40:55;27.30;99.90
19025;DHT22;9645;51.448;6.260;2022-07-09T12:43:22;27.40;99.90
19025;DHT22;9645;51.448;6.260;2022-07-09T12:45:49;27.80;99.90
19025;DHT22;9645;51.448;6.260;2022-07-09T12:48:16;28.20;99.90
19025;DHT22;9645;51.448;6.260;2022-07-09T12:50:44;27.60;99.90
19025;DHT22;9645;51.448;6.260;2022-07-09T12:53:13;27.40;99.90
19025;DHT22;9645;51.448;6.260;2022-07-09T12:55:40;27.00;99.90
19025;DHT22;9645;51.448;6.260;2022-07-09T12:58:07;26.90;99.90
19025;DHT22;9645;51.448;6.260;2022-07-09T13:00:34;26.60;99.90
19025;DHT22;9645;51.448;6.260;2022-07-09T13:03:01;26.80;99.90
19025;DHT22;9645;51.448;6.260;2022-07-09T13:05:28;27.00;99.90
19025;DHT22;9645;51.448;6.260;2022-07-09T13:07:57;27.00;99.90
19025;DHT22;9645;51.448;6.260;2022-07-09T13:10:25;27.30;99.90
19025;DHT22;9645;51.448;6.260;2022-07-09T13:12:52;27.30;99.90
19025;DHT22;9645;51.448;6.260;2022-07-09T13:15:19;27.50;99.90
19025;DHT22;9645;51.448;6.260;2022-07-09T13:17:46;27.40;99.90
19025;DHT22;9645;51.448;6.260;2022-07-09T13:20:13;27.50;99.90
19025;DHT22;9645;51.448;6.260;2022-07-09T13:22:40;27.40;99.90
19025;DHT22;9645;51.448;6.260;2022-07-09T13:25:09;26.90;99.90
19025;DHT22;9645;51.448;6.260;2022-07-09T13:27:36;27.00;99.90
19025;DHT22;9645;51.448;6.260;2022-07-09T13:30:04;26.90;99.90
19025;DHT22;9645;51.448;6.260;2022-07-09T13:32:32;27.30;99.90
19025;DHT22;9645;51.448;6.260;2022-07-09T13:34:59;27.40;99.90
19025;DHT22;9645;51.448;6.260;2022-07-09T13:37:26;27.30;99.90
19025;DHT22;9645;51.448;6.260;2022-07-09T13:39:53;27.00;99.90
19025;DHT22;9645;51.448;6.260;2022-07-09T13:42:21;27.00;99.90
19025;DHT22;9645;51.448;6.260;2022-07-09T13:44:48;26.90;99.90
19025;DHT22;9645;51.448;6.260;2022-07-09T13:47:15;26.80;99.90
19025;DHT22;9645;51.448;6.260;2022-07-09T13:49:43;26.70;99.90
19025;DHT22;9645;51.448;6.260;2022-07-09T13:52:10;26.70;99.90
19025;DHT22;9645;51.448;6.260;2022-07-09T13:54:37;27.00;99.90
19025;DHT22;9645;51.448;6.260;2022-07-09T13:57:05;27.00;99.90
19025;DHT22;9645;51.448;6.260;2022-07-09T13:59:34;27.20;99.90
19025;DHT22;9645;51.448;6.260;2022-07-09T14:02:01;27.30;99.90
19025;DHT22;9645;51.448;6.260;2022-07-09T14:04:28;27.50;99.90
19025;DHT22;9645;51.448;6.260;2022-07-09T14:06:55;27.30;99.90
19025;DHT22;9645;51.448;6.260;2022-07-09T14:09:22;27.00;99.90
19025;DHT22;9645;51.448;6.260;2022-07-09T14:11:49;26.70;99.90
19025;DHT22;9645;51.448;6.260;2022-07-09T14:14:16;26.70;99.90
19025;DHT22;9645;51.448;6.260;2022-07-09T14:16:45;26.50;99.90
19025;DHT22;9645;51.448;6.260;2022-07-09T14:19:12;26.70;99.90
19025;DHT22;9645;51.448;6.260;2022-07-09T14:21:39;26.60;99.90
19025;DHT22;9645;51.448;6.260;2022-07-09T14:24:06;26.40;99.90
19025;DHT22;9645;51.448;6.260;2022-07-09T14:26:34;26.40;99.90
19025;DHT22;9645;51.448;6.260;2022-07-09T14:29:01;26.30;99.90
19025;DHT22;9645;51.448;6.260;2022-07-09T14:31:28;26.40;99.90
19025;DHT22;9645;51.448;6.260;2022-07-09T14:33:56;26.20;99.90
19025;DHT22;9645;51.448;6.260;2022-07-09T14:36:23;26.40;99.90
19025;DHT22;9645;51.448;6.260;2022-07-09T14:38:50;26.50;99.90
19025;DHT22;9645;51.448;6.260;2022-07-09T14:41:17;26.50;99.90
19025;DHT22;9645;51.448;6.260;2022-07-09T14:43:44;26.70;99.90
19025;DHT22;9645;51.448;6.260;2022-07-09T14:46:11;26.90;99.90
19025;DHT22;9645;51.448;6.260;2022-07-09T14:48:38;27.00;99.90
19025;DHT22;9645;51.448;6.260;2022-07-09T14:51:08;26.80;99.90
19025;DHT22;9645;51.448;6.260;2022-07-09T14:53:35;26.50;99.90
19025;DHT22;9645;51.448;6.260;2022-07-09T14:56:02;26.60;99.90
19025;DHT22;9645;51.448;6.260;2022-07-09T14:58:29;26.60;99.90
19025;DHT22;9645;51.448;6.260;2022-07-09T15:00:57;26.40;99.90
19025;DHT22;9645;51.448;6.260;2022-07-09T15:03:24;26.40;99.90
19025;DHT22;9645;51.448;6.260;2022-07-09T15:05:51;25.90;99.70
19025;DHT22;9645;51.448;6.260;2022-07-09T15:08:19;26.10;99.90
19025;DHT22;9645;51.448;6.260;2022-07-09T15:10:46;26.10;99.40
19025;DHT22;9645;51.448;6.260;2022-07-09T15:13:14;26.30;99.60
19025;DHT22;9645;51.448;6.260;2022-07-09T15:15:41;26.60;99.90
19025;DHT22;9645;51.448;6.260;2022-07-09T15:18:08;27.00;99.10
19025;DHT22;9645;51.448;6.260;2022-07-09T15:20:35;26.90;98.60
19025;DHT22;9645;51.448;6.260;2022-07-09T15:23:02;26.80;98.50
19025;DHT22;9645;51.448;6.260;2022-07-09T15:25:30;26.90;98.70
19025;DHT22;9645;51.448;6.260;2022-07-09T15:27:57;26.70;97.80
19025;DHT22;9645;51.448;6.260;2022-07-09T15:30:24;26.70;96.90
19025;DHT22;9645;51.448;6.260;2022-07-09T15:32:51;26.60;96.40
19025;DHT22;9645;51.448;6.260;2022-07-09T15:35:19;26.50;96.80
19025;DHT22;9645;51.448;6.260;2022-07-09T15:37:46;26.60;96.30
19025;DHT22;9645;51.448;6.260;2022-07-09T15:40:15;26.40;96.30
19025;DHT22;9645;51.448;6.260;2022-07-09T15:42:44;26.10;96.50
19025;DHT22;9645;51.448;6.260;2022-07-09T15:45:12;25.50;96.80
19025;DHT22;9645;51.448;6.260;2022-07-09T15:47:40;24.90;97.30
19025;DHT22;9645;51.448;6.260;2022-07-09T15:50:08;24.80;97.60
19025;DHT22;9645;51.448;6.260;2022-07-09T15:52:35;24.80;98.00
19025;DHT22;9645;51.448;6.260;2022-07-09T15:55:04;24.80;98.00
19025;DHT22;9645;51.448;6.260;2022-07-09T15:57:31;24.70;97.60
19025;DHT22;9645;51.448;6.260;2022-07-09T16:00:00;24.70;97.90
19025;DHT22;9645;51.448;6.260;2022-07-09T16:02:27;24.50;98.00
19025;DHT22;9645;51.448;6.260;2022-07-09T16:04:54;24.20;98.00
19025;DHT22;9645;51.448;6.260;2022-07-09T16:07:21;24.00;97.80
19025;DHT22;9645;51.448;6.260;2022-07-09T16:09:48;23.80;98.20
19025;DHT22;9645;51.448;6.260;2022-07-09T16:12:16;23.80;97.80
19025;DHT22;9645;51.448;6.260;2022-07-09T16:15:03;23.80;96.80
19025;DHT22;9645;51.448;6.260;2022-07-09T16:17:30;23.80;96.00
19025;DHT22;9645;51.448;6.260;2022-07-09T16:19:57;23.80;96.70
19025;DHT22;9645;51.448;6.260;2022-07-09T16:22:24;24.10;97.20
19025;DHT22;9645;51.448;6.260;2022-07-09T16:24:51;24.40;97.50
19025;DHT22;9645;51.448;6.260;2022-07-09T16:27:18;24.50;97.50